Time;durP1;ratioP1;P1;durP2;ratioP2;P2;SDS_P1;SDS_P2;PMS_P1;PMS_P2;Temp;Humidity;BMP_temperature;BMP_pressure;BME280_temperature;BME280_humidity;BME280_pressure;Samples;Min_cycle;Max_cycle;Signal;HPM_P1;HPM_P2
2023/03/15 00:02:15;;;;;;;3.00;1.47;;;16.20;56.30;;;;;;5065048;28;20245;-46
2023/03/15 00:04:45;;;;;;;3.07;1.57;;;16.20;56.30;;;;;;5068081;28;20552;-45
2023/03/15 00:07:15;;;;;;;2.87;1.70;;;16.10;56.30;;;;;;5058777;28;20222;-45
2023/03/15 00:09:49;;;;;;;2.90;1.43;;;16.10;56.30;;;;;;5056116;28;20194;-45
2023/03/15 00:12:25;;;;;;;2.87;1.47;;;16.10;56.30;;;;;;5064749;28;20196;-46
2023/03/15 00:15:08;;;;;;;3.93;1.60;;;16.20;56.30;;;;;;5049741;28;20221;-46
2023/03/15 00:17:39;;;;;;;2.33;1.53;;;16.10;56.20;;;;;;5055459;28;20220;-45
2023/03/15 00:20:13;;;;;;;3.10;1.40;;;16.10;56.20;;;;;;5067674;28;20217;-46
2023/03/15 00:22:44;;;;;;;2.50;1.57;;;16.20;56.30;;;;;;5043129;28;20193;-46
2023/03/15 00:25:14;;;;;;;2.67;1.20;;;16.10;56.20;;;;;;5050047;28;20198;-45
2023/03/15 00:27:55;;;;;;;2.90;1.20;;;16.10;56.20;;;;;;5073204;28;20304;-46
2023/03/15 00:30:27;;;;;;;3.47;1.40;;;16.10;56.30;;;;;;5068450;28;20619;-45
2023/03/15 00:33:12;;;;;;;2.20;1.47;;;16.10;56.20;;;;;;5060070;28;20838;-45
2023/03/15 00:35:44;;;;;;;4.57;1.60;;;16.10;56.20;;;;;;5034284;28;20247;-45
2023/03/15 00:38:15;;;;;;;2.87;1.30;;;16.10;56.30;;;;;;5061227;28;20203;-45
2023/03/15 00:40:47;;;;;;;2.43;1.23;;;16.10;56.20;;;;;;5071637;28;20243;-45
2023/03/15 00:43:16;;;;;;;2.97;1.40;;;16.10;56.20;;;;;;5072047;28;20208;-46
2023/03/15 00:45:51;;;;;;;2.63;1.30;;;16.10;56.30;;;;;;5071454;28;20200;-46
2023/03/15 00:48:22;;;;;;;3.57;1.57;;;16.10;56.20;;;;;;5071514;28;20196;-46
2023/03/15 00:51:04;;;;;;;1.30;1.00;;;16.10;56.20;;;;;;5069129;28;20651;-46
2023/03/15 00:53:33;;;;;;;2.40;1.20;;;16.10;56.20;;;;;;5052590;28;20196;-45
2023/03/15 00:56:11;;;;;;;2.03;0.70;;;16.10;56.20;;;;;;5053259;28;20327;-46
2023/03/15 00:58:38;;;;;;;1.87;1.13;;;16.10;56.30;;;;;;5071052;28;20197;-46
2023/03/15 01:01:15;;;;;;;1.23;0.87;;;16.10;56.20;;;;;;5044984;28;20198;-46
2023/03/15 01:03:47;;;;;;;2.30;1.20;;;16.10;56.20;;;;;;5084081;28;20192;-46
2023/03/15 01:06:24;;;;;;;1.90;1.10;;;16.20;56.30;;;;;;5089847;28;20193;-46
2023/03/15 01:09:04;;;;;;;1.83;1.10;;;16.10;56.30;;;;;;5083635;28;20220;-45
2023/03/15 01:11:37;;;;;;;2.53;1.17;;;16.10;56.30;;;;;;5085158;28;20658;-45
2023/03/15 01:14:10;;;;;;;1.30;0.73;;;16.10;56.30;;;;;;5077458;28;20209;-46
2023/03/15 01:16:40;;;;;;;1.60;1.07;;;16.10;56.30;;;;;;5077997;28;20646;-46
2023/03/15 01:19:13;;;;;;;1.17;0.77;;;16.10;56.30;;;;;;5084749;28;20251;-46
2023/03/15 01:21:42;;;;;;;1.20;0.80;;;16.10;56.30;;;;;;5066582;28;20279;-46
2023/03/15 01:24:14;;;;;;;1.53;0.70;;;16.10;56.30;;;;;;5078952;28;20223;-45
2023/03/15 01:26:43;;;;;;;1.57;0.70;;;16.10;56.30;;;;;;5053931;28;20225;-46
2023/03/15 01:29:14;;;;;;;1.63;0.73;;;16.10;56.20;;;;;;5090314;28;20197;-46
2023/03/15 01:31:43;;;;;;;1.43;0.80;;;16.10;56.20;;;;;;5077291;28;20223;-45
2023/03/15 01:34:15;;;;;;;1.17;0.63;;;16.10;56.30;;;;;;5060856;28;20220;-45
2023/03/15 01:36:51;;;;;;;1.63;1.03;;;16.10;56.30;;;;;;5066001;28;20232;-45
2023/03/15 01:39:22;;;;;;;1.00;0.80;;;16.10;56.20;;;;;;5053267;28;20220;-46
2023/03/15 01:41:59;;;;;;;2.23;1.10;;;16.10;56.90;;;;;;5076417;28;20201;-46
2023/03/15 01:44:49;;;;;;;2.50;0.70;;;16.10;56.40;;;;;;5082155;28;20250;-46
2023/03/15 01:47:24;;;;;;;1.33;0.63;;;16.10;56.40;;;;;;5080297;28;20213;-45
2023/03/15 01:50:05;;;;;;;2.30;0.90;;;16.00;56.40;;;;;;5072729;28;20278;-46
2023/03/15 01:52:37;;;;;;;0.97;0.70;;;16.10;56.50;;;;;;5089629;28;20575;-45
2023/03/15 01:55:16;;;;;;;1.07;0.87;;;16.10;56.50;;;;;;5069949;28;20201;-46
2023/03/15 01:57:59;;;;;;;2.10;0.80;;;16.10;56.50;;;;;;5065303;28;20276;-45
2023/03/15 02:00:27;;;;;;;1.40;1.13;;;16.00;56.50;;;;;;5061498;28;20209;-46
2023/03/15 02:03:16;;;;;;;0.80;0.67;;;16.10;56.60;;;;;;5065755;28;20221;-46
2023/03/15 02:05:54;;;;;;;1.13;0.70;;;16.10;56.60;;;;;;5059150;28;20205;-45
2023/03/15 02:08:27;;;;;;;1.97;0.90;;;16.00;56.60;;;;;;5079639;28;20210;-46
2023/03/15 02:10:57;;;;;;;1.00;0.80;;;16.00;56.60;;;;;;5063831;28;20243;-46
2023/03/15 02:13:29;;;;;;;1.07;0.60;;;16.10;56.60;;;;;;5072376;28;20291;-45
2023/03/15 02:16:05;;;;;;;1.73;0.90;;;16.10;56.60;;;;;;5061499;28;20200;-45
2023/03/15 02:18:48;;;;;;;1.17;1.00;;;16.00;56.60;;;;;;5068763;28;20225;-45
2023/03/15 02:21:35;;;;;;;0.90;0.70;;;16.00;56.70;;;;;;5061822;28;20589;-46
2023/03/15 02:24:42;;;;;;;1.77;0.77;;;16.00;56.60;;;;;;5083802;28;20193;-45
2023/03/15 02:27:13;;;;;;;2.07;1.00;;;16.00;56.60;;;;;;5078454;28;20259;-45
2023/03/15 02:29:45;;;;;;;1.07;0.77;;;16.00;56.70;;;;;;5086984;28;20205;-47
2023/03/15 02:32:16;;;;;;;1.17;0.80;;;16.00;56.70;;;;;;5088762;28;20217;-45
2023/03/15 02:34:48;;;;;;;1.00;0.60;;;16.10;57.40;;;;;;5081180;28;20200;-46
2023/03/15 02:37:18;;;;;;;1.40;0.93;;;16.00;56.70;;;;;;5072246;28;20201;-46
2023/03/15 02:39:49;;;;;;;1.30;0.70;;;16.00;56.70;;;;;;5081948;28;20205;-45
2023/03/15 02:42:23;;;;;;;1.00;0.87;;;16.00;56.70;;;;;;5088691;28;20189;-45
2023/03/15 02:44:56;;;;;;;1.67;0.80;;;16.00;56.70;;;;;;5079906;28;20362;-45
2023/03/15 02:47:31;;;;;;;1.07;0.80;;;16.10;56.80;;;;;;5057468;28;20221;-45
2023/03/15 02:50:02;;;;;;;1.43;1.00;;;16.00;56.70;;;;;;5050603;28;20228;-45
2023/03/15 02:52:33;;;;;;;1.30;0.83;;;16.00;56.70;;;;;;5085168;28;20193;-46
2023/03/15 02:55:01;;;;;;;0.73;0.70;;;16.00;56.70;;;;;;5072512;28;20197;-45
2023/03/15 02:57:34;;;;;;;1.73;0.93;;;16.00;56.80;;;;;;5073817;28;20209;-45
2023/03/15 03:00:10;;;;;;;1.27;0.87;;;16.00;56.70;;;;;;5088583;28;20644;-46
2023/03/15 03:02:54;;;;;;;1.47;1.00;;;16.00;56.80;;;;;;5070180;28;20327;-45
2023/03/15 03:05:25;;;;;;;1.20;0.80;;;16.00;56.90;;;;;;5062446;28;20526;-46
2023/03/15 03:07:54;;;;;;;0.70;0.70;;;16.00;56.80;;;;;;5081377;28;20233;-45
2023/03/15 03:10:24;;;;;;;1.40;1.03;;;16.00;56.80;;;;;;5085246;28;20201;-46
2023/03/15 03:12:54;;;;;;;1.10;0.70;;;16.00;56.80;;;;;;5061500;28;20535;-45
2023/03/15 03:15:23;;;;;;;1.53;0.87;;;16.00;56.90;;;;;;5062577;28;20209;-46
2023/03/15 03:17:53;;;;;;;1.13;0.80;;;16.00;56.90;;;;;;5069449;28;20224;-46
2023/03/15 03:20:26;;;;;;;0.93;0.80;;;16.00;56.90;;;;;;5079463;28;20197;-46
2023/03/15 03:22:57;;;;;;;1.13;0.87;;;16.00;56.90;;;;;;5078223;28;20505;-45
2023/03/15 03:25:26;;;;;;;1.13;0.87;;;16.00;56.90;;;;;;5077262;28;20201;-46
2023/03/15 03:27:57;;;;;;;1.53;0.77;;;16.00;56.90;;;;;;5073214;28;20858;-46
2023/03/15 03:30:29;;;;;;;0.93;0.73;;;16.00;56.90;;;;;;5060258;28;20197;-45
2023/03/15 03:33:02;;;;;;;1.03;0.70;;;16.00;57.00;;;;;;5079723;28;20189;-45
2023/03/15 03:35:32;;;;;;;1.93;0.67;;;16.00;56.90;;;;;;5085182;28;20197;-46
2023/03/15 03:38:03;;;;;;;1.33;0.60;;;16.00;56.90;;;;;;5084825;28;20613;-45
2023/03/15 03:40:34;;;;;;;1.23;0.77;;;16.00;57.00;;;;;;5059482;28;20209;-46
2023/03/15 03:43:08;;;;;;;1.30;0.60;;;16.00;56.90;;;;;;5081380;28;20204;-46
2023/03/15 03:45:37;;;;;;;1.50;0.60;;;16.00;57.00;;;;;;5073345;28;20198;-46
2023/03/15 03:48:05;;;;;;;1.20;0.90;;;16.00;57.00;;;;;;5068608;28;20225;-46
2023/03/15 03:50:35;;;;;;;0.60;0.50;;;16.00;57.60;;;;;;5082244;28;20205;-45
2023/03/15 03:53:03;;;;;;;0.90;0.60;;;15.90;56.90;;;;;;5088225;28;20228;-45
2023/03/15 03:55:33;;;;;;;1.03;0.67;;;16.00;57.00;;;;;;5084969;28;20224;-45
2023/03/15 03:58:04;;;;;;;1.07;0.53;;;16.00;57.00;;;;;;5086322;28;20196;-46
2023/03/15 04:00:33;;;;;;;0.80;0.60;;;16.00;57.00;;;;;;5068440;28;20661;-45
2023/03/15 04:03:02;;;;;;;1.07;0.80;;;15.90;57.00;;;;;;5049874;28;20718;-45
2023/03/15 04:05:34;;;;;;;0.70;0.40;;;15.90;57.00;;;;;;5068121;28;20189;-46
2023/03/15 04:08:08;;;;;;;1.93;0.83;;;15.90;57.00;;;;;;5072443;28;20219;-45
2023/03/15 04:10:41;;;;;;;0.97;0.60;;;15.90;57.00;;;;;;5067851;28;20201;-46
2023/03/15 04:13:12;;;;;;;1.27;1.00;;;16.00;57.10;;;;;;5067770;28;20260;-46
2023/03/15 04:15:41;;;;;;;1.67;0.90;;;15.90;57.00;;;;;;5064098;28;20554;-45
2023/03/15 04:18:10;;;;;;;1.33;0.60;;;16.00;57.10;;;;;;5049172;28;20220;-45
2023/03/15 04:20:46;;;;;;;1.10;0.63;;;16.00;57.10;;;;;;5068205;28;20326;-45
2023/03/15 04:23:17;;;;;;;1.50;0.60;;;16.00;57.10;;;;;;5049086;28;20208;-46
2023/03/15 04:26:01;;;;;;;0.60;0.50;;;16.00;57.10;;;;;;5042899;28;20221;-45
2023/03/15 04:28:36;;;;;;;0.80;0.50;;;15.90;57.10;;;;;;5059897;28;20275;-46
2023/03/15 04:31:13;;;;;;;0.50;0.50;;;16.00;57.30;;;;;;5037432;28;20205;-45
2023/03/15 04:33:43;;;;;;;0.77;0.67;;;15.90;57.10;;;;;;5067373;28;20186;-46
2023/03/15 04:36:17;;;;;;;3.10;0.83;;;15.90;57.10;;;;;;5055823;28;20190;-46
2023/03/15 04:39:03;;;;;;;1.23;0.90;;;15.90;57.10;;;;;;5063803;28;20205;-46
2023/03/15 04:41:38;;;;;;;0.90;0.77;;;15.90;57.20;;;;;;5060951;28;20204;-46
2023/03/15 04:44:07;;;;;;;1.30;0.80;;;15.90;57.80;;;;;;5048353;28;20616;-45
2023/03/15 04:46:38;;;;;;;0.90;0.90;;;15.90;57.20;;;;;;5064669;28;20198;-46
2023/03/15 04:49:09;;;;;;;0.60;0.50;;;15.90;57.20;;;;;;5068584;28;20675;-46
2023/03/15 04:51:38;;;;;;;0.50;0.50;;;15.90;57.20;;;;;;5062238;28;20213;-46
2023/03/15 04:54:09;;;;;;;0.93;0.67;;;15.90;57.20;;;;;;5069427;28;20209;-46
2023/03/15 04:56:50;;;;;;;0.80;0.73;;;15.90;57.20;;;;;;5065445;28;20186;-45
2023/03/15 04:59:17;;;;;;;0.40;0.33;;;15.90;57.20;;;;;;5067337;28;20201;-45
2023/03/15 05:01:48;;;;;;;1.00;0.80;;;15.90;57.10;;;;;;5070110;28;20697;-45
2023/03/15 05:04:20;;;;;;;1.30;0.80;;;15.90;57.20;;;;;;5069203;28;20267;-46
2023/03/15 05:06:56;;;;;;;0.90;0.80;;;15.90;57.20;;;;;;5073475;28;20309;-46
2023/03/15 05:09:26;;;;;;;1.37;0.63;;;15.90;57.20;;;;;;5067037;28;20225;-45
2023/03/15 05:11:57;;;;;;;1.00;0.90;;;15.90;57.20;;;;;;5070025;28;20616;-46
2023/03/15 05:14:25;;;;;;;1.17;0.60;;;15.90;57.20;;;;;;5067744;28;20240;-45
2023/03/15 05:16:58;;;;;;;1.00;0.90;;;15.80;57.20;;;;;;5072457;28;20223;-45
2023/03/15 05:19:32;;;;;;;1.03;0.60;;;15.90;57.30;;;;;;5065470;28;20648;-45
2023/03/15 05:22:09;;;;;;;0.57;0.57;;;15.80;57.10;;;;;;5055539;28;20201;-46
2023/03/15 05:24:41;;;;;;;0.70;0.60;;;15.90;57.20;;;;;;5067966;28;20566;-45
2023/03/15 05:27:13;;;;;;;0.67;0.60;;;15.80;57.10;;;;;;5066729;28;20221;-45
2023/03/15 05:30:01;;;;;;;0.70;0.70;;;15.80;57.20;;;;;;5046535;28;20213;-45
2023/03/15 05:32:38;;;;;;;0.60;0.50;;;15.80;57.20;;;;;;5031083;28;20346;-45
2023/03/15 05:35:14;;;;;;;0.60;0.60;;;15.80;57.20;;;;;;5053988;28;20823;-45
2023/03/15 05:37:42;;;;;;;0.83;0.60;;;15.80;57.20;;;;;;5056206;28;20214;-45
2023/03/15 05:40:14;;;;;;;0.53;0.50;;;15.80;57.30;;;;;;5071443;28;20220;-46
2023/03/15 05:42:45;;;;;;;1.97;0.90;;;15.80;57.20;;;;;;5078940;28;20276;-45
2023/03/15 05:45:15;;;;;;;1.77;0.80;;;15.80;57.30;;;;;;5070190;28;20525;-45
2023/03/15 05:47:45;;;;;;;0.77;0.77;;;15.80;57.30;;;;;;5069117;28;20229;-45
2023/03/15 05:50:27;;;;;;;0.80;0.80;;;15.80;57.30;;;;;;5067753;28;20302;-46
2023/03/15 05:52:58;;;;;;;0.93;0.80;;;15.80;57.30;;;;;;5082524;28;20299;-46
2023/03/15 05:55:30;;;;;;;0.80;0.70;;;15.80;57.30;;;;;;5067170;28;20189;-46
2023/03/15 05:58:05;;;;;;;1.90;0.93;;;15.80;57.30;;;;;;5061535;28;20589;-46
2023/03/15 06:00:33;;;;;;;1.00;0.90;;;15.80;57.20;;;;;;5070852;28;20209;-46
2023/03/15 06:03:03;;;;;;;1.03;0.93;;;15.80;57.20;;;;;;5067575;28;20586;-45
2023/03/15 06:05:34;;;;;;;0.67;0.67;;;15.80;57.20;;;;;;5080711;28;20607;-46
2023/03/15 06:08:04;;;;;;;1.00;0.63;;;15.80;57.10;;;;;;5089516;28;20224;-45
2023/03/15 06:10:36;;;;;;;2.37;0.80;;;15.70;57.10;;;;;;5072476;28;20189;-45
2023/03/15 06:13:11;;;;;;;1.07;0.70;;;15.80;57.10;;;;;;5059255;28;20266;-46
2023/03/15 06:15:46;;;;;;;1.33;1.00;;;15.70;57.10;;;;;;5086597;28;20705;-46
2023/03/15 06:18:16;;;;;;;2.30;0.70;;;15.80;57.10;;;;;;5074318;28;20202;-45
2023/03/15 06:20:49;;;;;;;0.70;0.70;;;15.80;57.00;;;;;;5070259;28;20194;-46
2023/03/15 06:23:20;;;;;;;1.43;1.27;;;15.80;57.10;;;;;;5086775;28;20685;-46
2023/03/15 06:25:51;;;;;;;2.20;0.90;;;15.70;57.00;;;;;;5080783;28;20213;-45
2023/03/15 06:28:20;;;;;;;0.97;0.90;;;15.70;57.10;;;;;;5089470;28;20642;-45
2023/03/15 06:30:50;;;;;;;0.97;0.93;;;15.80;57.10;;;;;;5082390;28;20227;-46
2023/03/15 06:33:25;;;;;;;0.80;0.80;;;15.80;57.10;;;;;;5086404;28;20272;-46
2023/03/15 06:35:58;;;;;;;0.63;0.63;;;15.70;57.00;;;;;;5083769;28;20193;-46
2023/03/15 06:38:30;;;;;;;1.10;1.00;;;15.70;57.10;;;;;;5081248;28;20221;-46
2023/03/15 06:41:03;;;;;;;1.50;1.00;;;15.70;57.10;;;;;;5067751;28;20209;-46
2023/03/15 06:43:33;;;;;;;1.53;1.23;;;15.70;57.10;;;;;;5042870;28;20181;-45
2023/03/15 06:46:03;;;;;;;1.13;1.03;;;15.70;57.20;;;;;;5080944;28;20205;-45
2023/03/15 06:48:30;;;;;;;3.33;0.90;;;15.70;57.20;;;;;;5085213;28;20213;-46
2023/03/15 06:50:58;;;;;;;1.10;1.03;;;15.70;57.10;;;;;;5068068;28;20278;-46
2023/03/15 06:53:30;;;;;;;2.53;1.17;;;15.60;57.00;;;;;;5073623;28;20605;-46
2023/03/15 06:56:00;;;;;;;1.43;1.00;;;15.70;57.10;;;;;;5079861;28;20402;-46
2023/03/15 06:58:29;;;;;;;1.40;1.07;;;15.70;57.10;;;;;;5084771;28;20194;-46
2023/03/15 07:01:02;;;;;;;1.80;1.50;;;15.70;56.90;;;;;;5078769;28;20262;-45
2023/03/15 07:03:43;;;;;;;1.93;1.30;;;15.70;56.90;;;;;;5077835;28;20303;-45
2023/03/15 07:06:12;;;;;;;3.03;1.23;;;15.70;56.90;;;;;;5060113;28;20197;-46
2023/03/15 07:08:42;;;;;;;3.83;1.10;;;15.70;56.90;;;;;;5077427;28;20212;-45
2023/03/15 07:11:13;;;;;;;1.53;1.13;;;15.70;56.90;;;;;;5074504;28;20201;-46
2023/03/15 07:13:42;;;;;;;1.83;1.47;;;15.60;56.80;;;;;;5063368;28;20205;-45
2023/03/15 07:16:11;;;;;;;2.50;1.30;;;15.70;56.80;;;;;;5077193;28;20715;-46
2023/03/15 07:18:39;;;;;;;1.03;0.93;;;15.70;57.00;;;;;;5087499;28;20201;-45
2023/03/15 07:21:09;;;;;;;2.23;1.30;;;15.60;57.00;;;;;;5072864;28;20681;-45
2023/03/15 07:23:40;;;;;;;1.70;1.20;;;15.70;57.10;;;;;;5079735;28;20197;-46
2023/03/15 07:26:12;;;;;;;1.60;1.03;;;15.70;57.10;;;;;;5069336;28;20627;-46
2023/03/15 07:28:43;;;;;;;1.40;1.30;;;15.70;57.00;;;;;;5079086;28;20216;-46
2023/03/15 07:31:12;;;;;;;1.73;1.07;;;15.70;56.90;;;;;;5057420;28;20583;-45
2023/03/15 07:33:40;;;;;;;12.47;3.27;;;15.60;56.90;;;;;;5056312;28;20193;-46
2023/03/15 07:36:12;;;;;;;56.53;11.40;;;15.70;57.10;;;;;;5063606;28;20235;-46
2023/03/15 07:38:40;;;;;;;52.97;10.30;;;15.70;57.80;;;;;;5085388;28;20315;-46
2023/03/15 07:41:10;;;;;;;56.80;11.00;;;15.80;58.00;;;;;;5069759;28;20212;-46
2023/03/15 07:43:41;;;;;;;49.03;10.03;;;15.70;58.40;;;;;;5072718;28;20555;-46
2023/03/15 07:46:10;;;;;;;40.37;9.40;;;15.70;57.80;;;;;;5067176;28;20558;-45
2023/03/15 07:48:52;;;;;;;40.63;8.60;;;15.70;57.60;;;;;;5079111;28;20300;-46
2023/03/15 07:51:30;;;;;;;40.20;8.23;;;15.70;57.50;;;;;;5065582;28;20216;-46
2023/03/15 07:54:00;;;;;;;33.73;7.47;;;15.70;57.50;;;;;;5073965;28;20198;-45
2023/03/15 07:56:29;;;;;;;25.57;6.60;;;15.70;57.40;;;;;;5072444;28;20193;-46
2023/03/15 07:58:58;;;;;;;21.80;5.70;;;15.70;57.30;;;;;;5060484;28;20249;-46
2023/03/15 08:01:27;;;;;;;24.37;5.87;;;15.70;57.30;;;;;;5070432;28;20222;-46
2023/03/15 08:04:01;;;;;;;22.93;5.73;;;15.70;57.30;;;;;;5061594;28;20205;-46
2023/03/15 08:06:33;;;;;;;18.37;5.83;;;15.70;57.20;;;;;;5048293;28;20198;-46
2023/03/15 08:09:05;;;;;;;17.13;4.93;;;15.70;57.20;;;;;;5048416;28;20696;-46
2023/03/15 08:11:37;;;;;;;13.40;4.50;;;15.70;57.10;;;;;;5060363;28;20705;-45
2023/03/15 08:14:10;;;;;;;14.13;4.80;;;15.70;57.00;;;;;;5061441;28;20202;-46
2023/03/15 08:16:41;;;;;;;16.57;4.77;;;15.80;57.00;;;;;;5057114;28;20193;-45
2023/03/15 08:19:10;;;;;;;16.33;4.30;;;15.70;57.00;;;;;;5062042;28;20572;-45
2023/03/15 08:21:44;;;;;;;12.30;3.80;;;15.80;57.10;;;;;;5053803;28;20274;-47
2023/03/15 08:24:17;;;;;;;13.13;4.10;;;15.80;57.00;;;;;;5068050;28;20208;-45
2023/03/15 08:26:47;;;;;;;9.17;3.47;;;15.70;56.90;;;;;;5063570;28;20209;-46
2023/03/15 08:29:29;;;;;;;10.03;3.77;;;15.80;57.10;;;;;;5048687;28;20205;-45
2023/03/15 08:31:59;;;;;;;10.50;3.10;;;15.70;57.00;;;;;;5062900;28;20236;-45
2023/03/15 08:34:33;;;;;;;10.47;3.70;;;15.80;57.00;;;;;;5064644;28;20615;-45
2023/03/15 08:37:04;;;;;;;7.97;2.80;;;15.70;56.90;;;;;;5045974;28;20205;-45
2023/03/15 08:39:31;;;;;;;6.10;3.03;;;15.80;57.10;;;;;;5061440;28;20220;-46
2023/03/15 08:42:02;;;;;;;10.20;3.07;;;15.80;57.00;;;;;;5047405;28;20232;-46
2023/03/15 08:44:36;;;;;;;9.57;2.87;;;15.80;57.00;;;;;;5049594;28;20284;-45
2023/03/15 08:47:04;;;;;;;5.73;2.50;;;15.80;57.00;;;;;;5066146;28;20262;-45
2023/03/15 08:49:33;;;;;;;8.07;2.80;;;15.80;57.10;;;;;;5059843;28;20581;-45
2023/03/15 08:52:05;;;;;;;9.20;2.67;;;15.80;57.10;;;;;;5065804;28;20243;-46
2023/03/15 08:54:36;;;;;;;8.87;3.00;;;15.80;57.10;;;;;;5069473;28;20193;-46
2023/03/15 08:57:19;;;;;;;7.03;2.50;;;15.70;57.10;;;;;;5059640;28;20276;-45
2023/03/15 08:59:49;;;;;;;8.27;2.90;;;15.70;57.10;;;;;;5065636;28;20627;-46
2023/03/15 09:02:21;;;;;;;8.83;2.70;;;15.80;57.10;;;;;;5065734;28;20264;-46
2023/03/15 09:04:53;;;;;;;7.40;2.90;;;15.80;57.20;;;;;;5069223;28;20198;-46
2023/03/15 09:07:21;;;;;;;7.33;3.23;;;15.80;57.20;;;;;;5044445;28;20197;-45
2023/03/15 09:09:53;;;;;;;8.30;3.03;;;15.80;57.20;;;;;;5063224;28;20248;-45
2023/03/15 09:12:24;;;;;;;5.57;2.80;;;15.80;57.10;;;;;;5069586;28;20602;-45
2023/03/15 09:14:56;;;;;;;6.87;2.53;;;15.80;57.10;;;;;;5067912;28;20306;-45
2023/03/15 09:17:26;;;;;;;7.03;2.60;;;15.80;57.10;;;;;;5045633;28;20209;-45
2023/03/15 09:19:58;;;;;;;5.10;2.50;;;15.80;57.20;;;;;;5065396;28;20267;-45
2023/03/15 09:22:29;;;;;;;7.10;2.50;;;15.80;57.20;;;;;;5064790;28;20214;-45
2023/03/15 09:25:08;;;;;;;10.07;2.93;;;15.80;57.20;;;;;;5069492;28;20217;-45
2023/03/15 09:27:38;;;;;;;4.93;1.93;;;15.90;57.20;;;;;;5045102;28;20206;-45
2023/03/15 09:30:10;;;;;;;6.07;2.13;;;15.90;57.20;;;;;;5053010;28;20274;-46
2023/03/15 09:32:42;;;;;;;5.63;2.47;;;15.90;57.20;;;;;;5066734;28;20542;-46
2023/03/15 09:35:18;;;;;;;5.27;1.83;;;15.90;57.20;;;;;;5068884;28;20228;-46
2023/03/15 09:37:55;;;;;;;6.50;2.17;;;15.90;57.20;;;;;;5047408;28;20213;-46
2023/03/15 09:40:48;;;;;;;5.30;2.20;;;15.90;57.20;;;;;;5051138;28;20233;-46
2023/03/15 09:44:04;;;;;;;5.60;1.80;;;15.90;57.30;;;;;;5057041;28;20209;-46
2023/03/15 09:46:51;;;;;;;5.00;2.07;;;15.90;57.30;;;;;;5067838;28;20193;-46
2023/03/15 09:49:24;;;;;;;7.33;2.03;;;15.90;57.30;;;;;;5067218;28;20268;-45
2023/03/15 09:52:11;;;;;;;4.20;1.70;;;15.90;57.40;;;;;;5057026;28;20660;-46
2023/03/15 09:55:10;;;;;;;3.17;1.70;;;15.90;57.40;;;;;;5054232;28;20217;-46
2023/03/15 09:57:56;;;;;;;2.63;1.47;;;15.90;57.30;;;;;;5064596;28;20267;-45
2023/03/15 10:00:54;;;;;;;2.53;1.90;;;15.90;57.40;;;;;;5057924;28;20199;-46
2023/03/15 10:03:46;;;;;;;3.63;1.57;;;16.00;57.40;;;;;;5064543;28;20237;-45
2023/03/15 10:06:34;;;;;;;4.63;1.70;;;16.00;57.40;;;;;;5088951;28;20185;-45
2023/03/15 10:09:15;;;;;;;2.53;1.53;;;16.00;57.30;;;;;;5088658;28;20223;-45
2023/03/15 10:12:02;;;;;;;4.43;1.60;;;16.00;57.30;;;;;;5073565;28;20224;-45
2023/03/15 10:14:48;;;;;;;2.97;1.13;;;16.00;57.30;;;;;;5080386;28;20239;-46
2023/03/15 10:18:03;;;;;;;2.73;1.33;;;16.00;57.30;;;;;;5085160;28;20196;-47
2023/03/15 10:20:41;;;;;;;3.10;1.43;;;16.00;57.30;;;;;;5078050;28;20209;-45
2023/03/15 10:23:30;;;;;;;5.73;1.77;;;16.00;57.40;;;;;;5067727;28;20634;-46
2023/03/15 10:26:07;;;;;;;4.67;1.60;;;16.10;57.20;;;;;;5070084;28;20220;-45
2023/03/15 10:28:42;;;;;;;1.90;0.93;;;16.10;57.20;;;;;;5068907;28;20196;-45
2023/03/15 10:31:22;;;;;;;3.03;1.27;;;16.10;57.20;;;;;;5071654;28;20196;-46
2023/03/15 10:34:14;;;;;;;2.80;0.83;;;16.10;57.10;;;;;;5059790;28;20227;-45
2023/03/15 10:36:48;;;;;;;1.80;1.13;;;16.10;57.10;;;;;;5059774;28;20694;-45
2023/03/15 10:39:23;;;;;;;1.70;0.90;;;16.10;57.10;;;;;;5074159;28;20217;-45
2023/03/15 10:41:56;;;;;;;2.90;1.00;;;16.20;57.10;;;;;;5085442;28;20205;-45
2023/03/15 10:44:28;;;;;;;3.00;0.83;;;16.20;57.10;;;;;;5074836;28;20200;-46
2023/03/15 10:47:10;;;;;;;2.83;1.10;;;16.20;57.70;;;;;;5076574;28;20209;-45
2023/03/15 10:49:58;;;;;;;1.47;1.00;;;16.20;57.30;;;;;;5086324;28;20705;-46
2023/03/15 10:52:39;;;;;;;1.93;1.20;;;16.20;57.40;;;;;;5091890;28;20184;-46
2023/03/15 10:55:15;;;;;;;1.80;0.90;;;16.20;57.30;;;;;;5087961;28;20200;-46
2023/03/15 10:57:56;;;;;;;1.70;0.80;;;16.20;57.40;;;;;;5069291;28;20193;-45
2023/03/15 11:00:35;;;;;;;1.87;0.80;;;16.20;57.50;;;;;;5072719;28;20202;-46
2023/03/15 11:03:23;;;;;;;1.30;0.90;;;16.20;57.40;;;;;;5051386;28;20221;-46
2023/03/15 11:05:56;;;;;;;2.93;1.13;;;16.20;57.60;;;;;;5053026;28;20323;-45
2023/03/15 11:08:43;;;;;;;3.57;0.87;;;16.20;57.60;;;;;;5066220;28;20193;-46
2023/03/15 11:11:12;;;;;;;1.50;0.90;;;16.30;57.70;;;;;;5062102;28;20264;-46
2023/03/15 11:13:53;;;;;;;1.77;0.67;;;16.20;57.70;;;;;;5060589;28;20687;-46
2023/03/15 11:16:38;;;;;;;2.27;1.07;;;16.20;57.80;;;;;;5048410;28;20193;-46
2023/03/15 11:19:15;;;;;;;2.50;1.03;;;16.30;57.70;;;;;;5072148;28;20208;-46
2023/03/15 11:21:49;;;;;;;2.20;0.80;;;16.30;57.90;;;;;;5057178;28;20260;-46
2023/03/15 11:24:28;;;;;;;1.63;0.73;;;16.30;57.90;;;;;;5046961;28;20682;-46
2023/03/15 11:27:01;;;;;;;2.03;0.80;;;16.30;57.80;;;;;;5068090;28;20224;-45
2023/03/15 11:29:57;;;;;;;2.20;0.90;;;16.30;57.80;;;;;;5056705;28;20285;-46
2023/03/15 11:32:34;;;;;;;1.77;0.80;;;16.30;57.90;;;;;;5042962;28;20577;-45
2023/03/15 11:35:27;;;;;;;2.63;0.80;;;16.30;57.90;;;;;;5060082;28;20516;-45
2023/03/15 11:38:08;;;;;;;1.90;0.87;;;16.30;57.80;;;;;;5065812;28;20270;-46
2023/03/15 11:40:50;;;;;;;2.23;1.10;;;16.30;58.00;;;;;;5035483;28;20212;-45
2023/03/15 11:43:26;;;;;;;1.97;1.00;;;16.30;57.90;;;;;;5046873;28;20205;-46
2023/03/15 11:46:11;;;;;;;1.27;0.60;;;16.40;57.90;;;;;;5066103;28;20201;-45
2023/03/15 11:48:43;;;;;;;1.60;0.70;;;16.30;57.70;;;;;;5064695;28;20205;-45
2023/03/15 11:51:14;;;;;;;2.70;1.37;;;16.40;57.80;;;;;;5063904;28;20222;-46
2023/03/15 11:54:16;;;;;;;1.43;0.80;;;16.30;57.60;;;;;;5065207;28;20335;-46
2023/03/15 11:57:27;;;;;;;1.83;0.80;;;16.40;57.80;;;;;;5052138;28;20212;-45
2023/03/15 12:00:20;;;;;;;2.17;0.70;;;16.40;57.70;;;;;;5050619;28;20231;-45
2023/03/15 12:02:58;;;;;;;0.80;0.53;;;16.50;58.00;;;;;;5069674;28;20689;-45
2023/03/15 12:06:00;;;;;;;3.00;0.83;;;16.50;58.50;;;;;;5068413;28;20303;-45
2023/03/15 12:08:57;;;;;;;1.20;1.00;;;16.60;58.50;;;;;;5079670;28;20206;-45
2023/03/15 12:11:32;;;;;;;2.70;0.80;;;16.70;58.00;;;;;;5078381;28;20204;-45
2023/03/15 12:14:24;;;;;;;0.80;0.40;;;16.80;57.70;;;;;;5066808;28;20213;-45
2023/03/15 12:16:55;;;;;;;1.57;0.80;;;16.90;57.40;;;;;;5085428;28;20197;-45
2023/03/15 12:19:47;;;;;;;1.30;0.73;;;17.00;57.20;;;;;;5061430;28;20193;-45
2023/03/15 12:22:25;;;;;;;1.87;0.70;;;17.00;57.00;;;;;;5068049;28;20197;-46
2023/03/15 12:24:57;;;;;;;2.17;0.70;;;17.00;56.90;;;;;;5064477;28;20309;-46
2023/03/15 12:27:29;;;;;;;2.23;1.03;;;17.10;57.30;;;;;;5045348;28;20212;-46
2023/03/15 12:30:01;;;;;;;2.33;0.80;;;17.10;57.40;;;;;;5073193;28;20243;-46
2023/03/15 12:32:46;;;;;;;2.53;0.80;;;17.20;57.50;;;;;;5062833;28;20276;-46
2023/03/15 12:35:39;;;;;;;2.37;0.83;;;17.30;57.70;;;;;;5058666;28;20602;-46
2023/03/15 12:38:22;;;;;;;1.53;0.70;;;17.30;57.50;;;;;;5070720;28;20223;-46
2023/03/15 12:40:57;;;;;;;1.30;0.60;;;17.40;57.70;;;;;;5087063;28;20211;-46
2023/03/15 12:43:45;;;;;;;1.80;0.87;;;17.50;57.40;;;;;;5086342;28;20214;-47
2023/03/15 12:46:41;;;;;;;2.13;0.80;;;17.60;57.40;;;;;;5088725;28;20201;-46
2023/03/15 12:49:34;;;;;;;0.97;0.40;;;17.60;57.50;;;;;;5079433;28;20637;-47
2023/03/15 12:52:46;;;;;;;3.73;0.57;;;17.80;56.90;;;;;;5080729;28;20244;-46
2023/03/15 12:55:18;;;;;;;1.50;0.57;;;17.80;56.50;;;;;;5084132;28;20646;-46
2023/03/15 12:57:52;;;;;;;2.80;0.60;;;17.90;56.50;;;;;;5065750;28;20233;-46
2023/03/15 13:00:29;;;;;;;1.13;0.70;;;18.00;56.20;;;;;;5071517;28;20192;-46
2023/03/15 13:03:16;;;;;;;0.80;0.50;;;18.10;56.40;;;;;;5057386;28;20225;-47
2023/03/15 13:06:20;;;;;;;1.87;0.60;;;18.20;56.20;;;;;;5048075;28;20197;-47
2023/03/15 13:09:28;;;;;;;1.60;0.80;;;18.10;55.60;;;;;;5064352;28;20198;-48
2023/03/15 13:12:14;;;;;;;1.80;0.80;;;18.20;55.70;;;;;;5064613;28;20205;-46
2023/03/15 13:14:51;;;;;;;2.33;0.60;;;18.30;55.80;;;;;;5052240;28;20553;-46
2023/03/15 13:17:54;;;;;;;1.57;0.80;;;18.40;55.50;;;;;;5068488;28;20198;-47
2023/03/15 13:20:53;;;;;;;2.20;0.77;;;18.40;55.00;;;;;;5050463;28;20211;-46
2023/03/15 13:23:30;;;;;;;1.80;0.57;;;18.50;54.30;;;;;;5064730;28;20198;-46
2023/03/15 13:26:01;;;;;;;2.17;0.40;;;18.50;54.30;;;;;;5070087;28;20220;-47
2023/03/15 13:28:49;;;;;;;1.37;0.70;;;18.50;54.70;;;;;;5061430;28;20244;-47
2023/03/15 13:31:26;;;;;;;2.00;0.50;;;18.60;54.70;;;;;;5069241;28;20217;-47